Time;durP1;ratioP1;P1;durP2;ratioP2;P2;SDS_P1;SDS_P2;PMS_P1;PMS_P2;Temp;Humidity;BMP_temperature;BMP_pressure;BME280_temperature;BME280_humidity;BME280_pressure;Samples;Min_cycle;Max_cycle;Signal;HPM_P1;HPM_P2
2022/05/21 03:02:23;;;;;;;2.03;1.80;;;28.30;46.30;;;;;;4954804;22;46136;-62
2022/05/21 03:04:48;;;;;;;1.73;1.63;;;28.30;46.50;;;;;;4924055;28;45481;-62
2022/05/21 03:07:14;;;;;;;1.88;1.77;;;28.30;46.50;;;;;;4939609;28;46031;-61
2022/05/21 03:12:24;;;;;;;2.05;1.73;;;28.30;46.50;;;;;;4958592;28;44833;-61
2022/05/21 03:14:50;;;;;;;1.58;1.48;;;28.30;46.50;;;;;;4954235;28;45223;-59
2022/05/21 03:17:15;;;;;;;1.67;1.58;;;28.30;46.50;;;;;;4959447;28;45926;-61
2022/05/21 03:19:41;;;;;;;1.70;1.60;;;28.30;46.60;;;;;;4957147;28;44882;-58
2022/05/21 03:22:07;;;;;;;1.67;1.58;;;28.30;46.60;;;;;;4944026;28;45291;-60
2022/05/21 03:24:32;;;;;;;1.70;1.60;;;28.30;46.50;;;;;;4949236;28;45492;-63
2022/05/21 03:26:58;;;;;;;2.00;1.80;;;28.30;46.50;;;;;;4950562;28;47047;-60
2022/05/21 03:29:24;;;;;;;1.80;1.70;;;28.30;46.40;;;;;;4949930;28;45771;-60
2022/05/21 03:31:49;;;;;;;2.40;1.60;;;28.20;46.40;;;;;;4949919;28;45352;-62
2022/05/21 03:34:15;;;;;;;1.75;1.65;;;28.20;46.40;;;;;;4948754;28;45721;-62
2022/05/21 03:36:41;;;;;;;1.70;1.60;;;28.20;46.40;;;;;;4956460;28;46184;-60
2022/05/21 03:39:06;;;;;;;1.67;1.58;;;28.20;46.30;;;;;;4948856;28;45180;-62
2022/05/21 03:41:32;;;;;;;1.73;1.60;;;28.20;46.30;;;;;;4950696;28;44677;-60
2022/05/21 03:43:58;;;;;;;4.07;1.70;;;28.20;46.30;;;;;;4952959;28;45301;-61
2022/05/21 03:46:23;;;;;;;2.05;1.73;;;28.20;46.30;;;;;;4947289;28;45436;-62
2022/05/21 03:48:49;;;;;;;2.60;1.70;;;28.20;46.30;;;;;;4947108;28;45310;-61
2022/05/21 03:51:15;;;;;;;1.88;1.40;;;28.20;46.30;;;;;;4951554;28;45454;-62
2022/05/21 03:53:40;;;;;;;1.70;1.60;;;28.20;46.30;;;;;;4940420;28;45509;-61
2022/05/21 03:56:06;;;;;;;1.60;1.50;;;28.20;46.30;;;;;;4955864;28;46068;-62
2022/05/21 03:58:32;;;;;;;1.35;1.25;;;28.20;46.20;;;;;;4957152;28;45309;-61
2022/05/21 04:00:57;;;;;;;1.60;1.50;;;28.20;46.10;;;;;;4946735;28;45749;-61
2022/05/21 04:03:24;;;;;;;1.63;1.52;;;28.20;46.20;;;;;;4947693;28;45692;-60
2022/05/21 04:05:50;;;;;;;2.15;1.90;;;28.20;46.20;;;;;;4953952;28;45454;-61
2022/05/21 04:08:16;;;;;;;2.30;2.05;;;28.20;46.20;;;;;;4938987;28;45643;-60
2022/05/21 04:10:42;;;;;;;2.15;1.70;;;28.20;46.20;;;;;;4932411;28;45283;-59
2022/05/21 04:13:07;;;;;;;1.92;1.83;;;28.20;46.20;;;;;;4956514;28;45619;-60
2022/05/21 04:15:33;;;;;;;1.75;1.65;;;28.20;46.20;;;;;;4950800;28;46050;-62
2022/05/21 04:17:59;;;;;;;4.10;1.67;;;28.20;46.20;;;;;;4952837;28;45386;-57
2022/05/21 04:20:25;;;;;;;1.73;1.63;;;28.20;46.20;;;;;;4949183;28;46617;-62
2022/05/21 04:22:51;;;;;;;3.20;1.50;;;28.10;46.10;;;;;;4954753;28;45630;-61
2022/05/21 04:25:16;;;;;;;1.70;1.60;;;28.10;46.10;;;;;;4955117;28;47167;-63
2022/05/21 04:27:42;;;;;;;1.85;1.70;;;28.10;46.10;;;;;;4957496;28;44916;-61
2022/05/21 04:30:15;;;;;;;1.50;1.40;;;28.10;46.10;;;;;;4957223;28;45436;-62
2022/05/21 04:32:41;;;;;;;1.63;1.52;;;28.10;46.10;;;;;;4954001;28;45248;-60
2022/05/21 04:35:07;;;;;;;3.22;1.70;;;28.10;46.10;;;;;;4954592;28;45058;-62
2022/05/21 04:37:36;;;;;;;1.75;1.60;;;28.10;46.10;;;;;;4953555;28;45470;-64
2022/05/21 04:40:02;;;;;;;1.60;1.50;;;28.20;46.10;;;;;;4955735;28;45217;-65
2022/05/21 04:42:28;;;;;;;1.52;1.40;;;28.10;46.10;;;;;;4953473;28;45619;-61
2022/05/21 04:44:53;;;;;;;1.60;1.50;;;28.10;46.10;;;;;;4953771;28;46593;-61
2022/05/21 04:47:19;;;;;;;1.35;1.25;;;28.10;46.10;;;;;;4951894;28;44697;-61
2022/05/21 04:49:45;;;;;;;1.83;1.58;;;28.10;46.00;;;;;;4942696;28;45528;-61
2022/05/21 04:52:10;;;;;;;4.55;1.58;;;28.10;46.00;;;;;;4951390;28;44842;-59
2022/05/21 04:54:36;;;;;;;1.48;1.38;;;28.10;46.00;;;;;;4952427;28;45999;-60
2022/05/21 04:57:02;;;;;;;1.60;1.50;;;28.10;46.00;;;;;;4956229;28;45147;-59
2022/05/21 04:59:27;;;;;;;1.60;1.40;;;28.10;46.10;;;;;;4954903;28;45274;-57
2022/05/21 05:01:53;;;;;;;1.50;1.40;;;28.10;46.00;;;;;;4952919;28;45517;-63
2022/05/21 05:04:18;;;;;;;1.88;1.58;;;28.10;46.10;;;;;;4952903;28;47168;-60
2022/05/21 05:06:44;;;;;;;1.52;1.42;;;28.00;46.00;;;;;;4958993;28;44858;-60
2022/05/21 05:09:09;;;;;;;1.90;1.30;;;28.00;45.90;;;;;;4965948;28;44747;-60
2022/05/21 05:11:35;;;;;;;1.50;1.40;;;28.10;46.00;;;;;;4958329;28;45586;-60
2022/05/21 05:14:01;;;;;;;1.70;1.60;;;28.10;45.90;;;;;;4954029;28;46268;-59
2022/05/21 05:16:27;;;;;;;1.50;1.40;;;28.10;45.90;;;;;;4958297;28;45605;-59
2022/05/21 05:18:52;;;;;;;1.40;1.30;;;28.10;45.80;;;;;;4956381;28;45250;-59
2022/05/21 05:21:18;;;;;;;1.50;1.40;;;28.20;45.70;;;;;;4959328;28;46081;-59
2022/05/21 05:23:44;;;;;;;1.30;1.20;;;28.20;45.50;;;;;;4959644;28;46169;-60
2022/05/21 05:26:09;;;;;;;1.35;1.25;;;28.30;45.30;;;;;;4958562;28;45566;-61
2022/05/21 05:28:35;;;;;;;1.55;1.45;;;28.50;45.10;;;;;;4957461;28;45136;-59
2022/05/21 05:31:00;;;;;;;1.35;1.25;;;28.60;45.40;;;;;;4955994;28;45359;-62
2022/05/21 05:33:26;;;;;;;2.50;1.15;;;28.80;44.60;;;;;;4952175;28;46046;-61
2022/05/21 05:35:52;;;;;;;1.42;1.27;;;28.90;44.30;;;;;;4959351;28;45515;-59
2022/05/21 05:38:18;;;;;;;1.60;1.35;;;29.00;44.10;;;;;;4938351;28;45640;-62
2022/05/21 05:40:46;;;;;;;1.20;1.10;;;29.10;43.80;;;;;;4953714;28;45267;-61
2022/05/21 05:43:12;;;;;;;1.50;1.40;;;29.20;43.70;;;;;;4954257;28;46371;-61
2022/05/21 05:45:38;;;;;;;1.42;1.33;;;29.20;44.40;;;;;;4954173;28;45516;-61
2022/05/21 05:48:04;;;;;;;1.73;1.40;;;29.10;43.90;;;;;;4955152;28;45051;-58
2022/05/21 05:50:30;;;;;;;1.30;1.20;;;29.00;44.00;;;;;;4954621;28;44803;-61
2022/05/21 05:53:03;;;;;;;1.10;1.10;;;28.90;44.10;;;;;;4956276;28;45309;-62
2022/05/21 05:55:30;;;;;;;1.48;1.20;;;28.90;44.10;;;;;;4954356;28;45101;-63
2022/05/21 05:57:56;;;;;;;1.05;1.05;;;28.80;44.30;;;;;;4957814;28;45014;-61
2022/05/21 06:00:21;;;;;;;1.40;1.17;;;28.80;44.50;;;;;;4954064;28;45090;-61
2022/05/21 06:02:59;;;;;;;1.38;1.27;;;28.70;44.40;;;;;;4958429;28;45955;-59
2022/05/21 06:05:32;;;;;;;2.05;1.20;;;28.60;44.40;;;;;;4953648;28;45151;-61
2022/05/21 06:08:02;;;;;;;1.25;1.15;;;28.60;44.50;;;;;;4939441;28;45280;-63
2022/05/21 06:10:35;;;;;;;1.30;1.17;;;28.60;44.60;;;;;;4956639;28;44926;-62
2022/05/21 06:13:00;;;;;;;1.50;1.40;;;28.50;44.60;;;;;;4956751;28;46144;-64
2022/05/21 06:15:26;;;;;;;1.27;1.17;;;28.60;44.80;;;;;;4954036;28;44822;-61
2022/05/21 06:17:52;;;;;;;1.30;1.17;;;28.50;44.70;;;;;;4953420;28;45595;-61
2022/05/21 06:20:19;;;;;;;1.35;1.20;;;28.50;44.70;;;;;;4951978;28;46142;-61
2022/05/21 06:22:45;;;;;;;1.38;1.27;;;28.50;44.70;;;;;;4953738;28;45493;-60
2022/05/21 06:25:11;;;;;;;1.27;1.17;;;28.50;44.70;;;;;;4955409;28;45216;-61
2022/05/21 06:27:37;;;;;;;1.73;1.38;;;28.50;45.20;;;;;;4958822;28;45292;-61
2022/05/21 06:30:04;;;;;;;0.82;0.82;;;28.50;44.70;;;;;;4960121;28;45403;-62
2022/05/21 06:32:30;;;;;;;1.58;1.10;;;28.50;44.60;;;;;;4938664;28;46445;-63
2022/05/21 06:34:55;;;;;;;1.05;0.95;;;28.50;44.70;;;;;;4952228;28;45082;-61
2022/05/21 06:37:21;;;;;;;1.30;1.20;;;28.50;44.60;;;;;;4936093;28;45506;-63
2022/05/21 06:39:47;;;;;;;1.30;1.20;;;28.50;44.60;;;;;;4962846;28;45094;-61
2022/05/21 06:42:13;;;;;;;1.08;1.00;;;28.50;44.60;;;;;;4955452;28;47162;-62
2022/05/21 06:44:38;;;;;;;1.52;1.30;;;28.50;44.50;;;;;;4946037;28;45307;-62
2022/05/21 06:47:04;;;;;;;1.40;0.95;;;28.50;44.50;;;;;;4950205;28;45493;-64
2022/05/21 06:49:30;;;;;;;0.98;0.98;;;28.50;44.50;;;;;;4926999;28;45012;-64
2022/05/21 06:51:56;;;;;;;3.35;1.20;;;28.50;44.50;;;;;;4943662;28;45241;-63
2022/05/21 06:54:22;;;;;;;1.33;1.23;;;28.50;44.50;;;;;;4947134;28;45077;-61
2022/05/21 06:56:48;;;;;;;0.88;0.88;;;28.50;44.60;;;;;;4946276;28;45963;-61
2022/05/21 06:59:14;;;;;;;1.92;1.15;;;28.50;44.60;;;;;;4947687;28;45657;-61
2022/05/21 07:01:40;;;;;;;1.60;1.20;;;28.40;44.50;;;;;;4927102;28;45868;-65
2022/05/21 07:04:06;;;;;;;1.40;1.30;;;28.50;44.50;;;;;;4947535;28;45529;-65
2022/05/21 07:09:16;;;;;;;1.10;1.00;;;28.50;44.40;;;;;;4953133;28;44830;-62
2022/05/21 07:11:41;;;;;;;1.25;1.15;;;28.50;44.40;;;;;;4932786;28;47412;-63
2022/05/21 07:14:07;;;;;;;1.25;1.15;;;28.50;44.40;;;;;;4945737;28;45294;-62
2022/05/21 07:16:33;;;;;;;2.97;1.17;;;28.50;44.30;;;;;;4949240;28;44931;-61
2022/05/21 07:18:58;;;;;;;0.95;0.90;;;28.50;44.80;;;;;;4946640;28;45051;-60
2022/05/21 07:21:24;;;;;;;1.30;1.20;;;28.50;44.20;;;;;;4932352;28;45696;-62
2022/05/21 07:23:49;;;;;;;1.20;1.10;;;28.50;44.20;;;;;;4945286;28;46570;-64
2022/05/21 07:26:16;;;;;;;0.85;0.85;;;28.50;44.20;;;;;;4948753;28;45428;-61
2022/05/21 07:28:41;;;;;;;1.13;1.02;;;28.50;44.20;;;;;;4948224;28;44734;-64
2022/05/21 07:31:07;;;;;;;1.77;0.95;;;28.50;44.30;;;;;;4947170;28;46942;-58
2022/05/21 07:33:33;;;;;;;1.40;1.05;;;28.50;44.20;;;;;;4941646;28;45401;-60
2022/05/21 07:35:58;;;;;;;1.27;1.00;;;28.50;44.20;;;;;;4931170;28;45558;-61
2022/05/21 07:38:24;;;;;;;1.23;1.10;;;28.50;44.20;;;;;;4949671;28;45166;-62
2022/05/21 07:40:52;;;;;;;0.85;0.80;;;28.50;44.30;;;;;;4947803;28;45648;-64
2022/05/21 07:43:22;;;;;;;1.00;1.00;;;28.60;44.30;;;;;;4930957;28;45259;-62
2022/05/21 07:45:49;;;;;;;1.10;1.00;;;28.60;44.10;;;;;;4945002;28;45469;-61
2022/05/21 07:48:17;;;;;;;1.42;1.05;;;28.60;44.20;;;;;;4947606;28;45595;-61
2022/05/21 07:50:46;;;;;;;1.63;0.90;;;28.50;44.10;;;;;;4946409;28;45177;-62
2022/05/21 07:53:12;;;;;;;1.15;1.05;;;28.60;44.10;;;;;;4948946;28;46085;-64
2022/05/21 07:55:38;;;;;;;1.20;1.10;;;28.60;44.10;;;;;;4946204;28;45477;-65
2022/05/21 07:58:04;;;;;;;1.20;1.10;;;28.60;44.00;;;;;;4949333;28;45372;-62
2022/05/21 08:00:30;;;;;;;1.10;1.10;;;28.60;44.00;;;;;;4951304;28;46173;-64
2022/05/21 08:02:55;;;;;;;1.35;1.00;;;28.60;44.00;;;;;;4949172;28;45688;-64
2022/05/21 08:05:21;;;;;;;1.05;0.95;;;28.60;43.90;;;;;;4948066;28;44891;-62
2022/05/21 08:07:51;;;;;;;1.05;0.93;;;28.60;43.90;;;;;;4947543;28;45997;-62
2022/05/21 08:10:17;;;;;;;0.80;0.80;;;28.60;43.90;;;;;;4933987;28;46632;-61
2022/05/21 08:12:42;;;;;;;1.00;1.00;;;28.60;43.90;;;;;;4951655;28;45094;-61
2022/05/21 08:15:09;;;;;;;1.02;0.90;;;28.60;43.90;;;;;;4957417;28;45679;-64
2022/05/21 08:17:34;;;;;;;1.15;1.08;;;28.60;43.80;;;;;;4955901;28;45397;-61
2022/05/21 08:20:00;;;;;;;0.85;0.85;;;28.60;43.70;;;;;;4953538;28;47250;-61
2022/05/21 08:27:56;;;;;;;1.00;1.00;;;28.70;43.70;;;;;;4947992;28;45430;-63
2022/05/21 08:30:21;;;;;;;0.80;0.80;;;28.70;43.60;;;;;;4948874;28;46280;-61
2022/05/21 08:32:47;;;;;;;1.48;1.05;;;28.70;43.70;;;;;;4950739;28;45518;-60
2022/05/21 08:35:12;;;;;;;1.23;1.10;;;28.70;43.60;;;;;;4953010;28;45206;-61
2022/05/21 08:37:38;;;;;;;1.10;1.00;;;28.70;43.50;;;;;;4950842;28;45618;-61
2022/05/21 08:40:04;;;;;;;1.45;0.90;;;28.70;43.50;;;;;;4947944;28;45598;-64
2022/05/21 08:42:42;;;;;;;1.13;1.02;;;28.70;43.50;;;;;;4931019;28;45651;-64
2022/05/21 08:45:20;;;;;;;1.10;1.00;;;28.70;43.30;;;;;;4923093;28;45610;-61
2022/05/21 08:47:55;;;;;;;1.25;0.80;;;28.80;43.20;;;;;;4946573;28;45641;-59
2022/05/21 08:50:21;;;;;;;0.75;0.75;;;28.70;43.40;;;;;;4935662;28;46209;-61
2022/05/21 08:52:52;;;;;;;1.00;1.00;;;28.70;43.40;;;;;;4942302;28;45557;-62
2022/05/21 08:55:21;;;;;;;1.20;1.10;;;28.70;43.30;;;;;;4960869;28;45633;-63
2022/05/21 08:57:48;;;;;;;1.20;1.10;;;28.80;43.30;;;;;;4955027;28;45815;-63
2022/05/21 09:00:19;;;;;;;1.25;0.80;;;28.70;43.30;;;;;;4914874;28;45882;-62
2022/05/21 09:02:45;;;;;;;0.95;0.88;;;28.80;43.30;;;;;;4945411;28;45657;-63
2022/05/21 09:05:12;;;;;;;2.80;1.17;;;28.80;43.20;;;;;;4920531;28;45503;-61
2022/05/21 09:07:48;;;;;;;0.70;0.70;;;28.80;43.20;;;;;;4933092;28;45276;-61
2022/05/21 09:10:31;;;;;;;1.05;0.95;;;28.80;43.10;;;;;;4916757;28;46336;-64
2022/05/21 09:13:20;;;;;;;0.90;0.90;;;28.80;42.90;;;;;;4945425;28;45490;-63
2022/05/21 09:18:31;;;;;;;1.20;0.98;;;28.80;43.10;;;;;;4935576;28;45259;-62
2022/05/21 09:21:04;;;;;;;1.05;0.93;;;28.80;43.10;;;;;;4950100;28;45866;-62
2022/05/21 09:23:57;;;;;;;1.13;0.82;;;28.80;43.10;;;;;;4935585;28;45821;-65
2022/05/21 09:26:50;;;;;;;0.70;0.70;;;28.80;42.70;;;;;;4949049;28;45442;-62
2022/05/21 09:29:20;;;;;;;1.08;0.90;;;28.80;43.00;;;;;;4944295;28;45548;-64
2022/05/21 09:31:46;;;;;;;0.85;0.85;;;28.80;43.10;;;;;;4930589;28;45432;-61
2022/05/21 09:34:31;;;;;;;0.85;0.73;;;28.80;43.10;;;;;;4951104;28;45456;-63
2022/05/21 09:36:57;;;;;;;0.82;0.80;;;28.80;42.80;;;;;;4934758;28;45562;-61
2022/05/21 09:39:30;;;;;;;0.88;0.88;;;28.80;43.00;;;;;;4929704;28;45780;-62
2022/05/21 09:45:22;;;;;;;0.85;0.60;;;28.80;42.70;;;;;;4933876;28;45620;-61
2022/05/21 09:47:51;;;;;;;0.70;0.70;;;28.80;42.90;;;;;;4930638;28;45139;-62
2022/05/21 09:50:23;;;;;;;0.68;0.68;;;28.80;42.90;;;;;;4931821;28;45634;-61
2022/05/21 09:52:49;;;;;;;0.77;0.75;;;28.80;42.80;;;;;;4950716;28;46218;-63
2022/05/21 09:55:33;;;;;;;0.70;0.70;;;28.80;42.90;;;;;;4953346;28;45765;-62
2022/05/21 09:58:13;;;;;;;1.08;0.90;;;28.80;42.50;;;;;;4932185;28;44659;-63
2022/05/21 10:00:39;;;;;;;1.10;1.00;;;28.80;42.50;;;;;;4946944;28;45105;-61
2022/05/21 10:03:07;;;;;;;0.82;0.75;;;28.80;42.80;;;;;;4932491;28;46157;-61
2022/05/21 10:05:45;;;;;;;1.15;0.80;;;28.80;42.80;;;;;;4933336;28;45645;-61
2022/05/21 10:11:31;;;;;;;1.50;0.73;;;28.80;42.30;;;;;;4954722;28;45208;-59
2022/05/21 10:14:16;;;;;;;0.70;0.70;;;28.80;42.60;;;;;;4939393;28;45937;-61
2022/05/21 10:16:46;;;;;;;0.75;0.73;;;28.80;42.60;;;;;;4935220;28;45239;-63
2022/05/21 10:19:30;;;;;;;0.70;0.70;;;28.80;42.50;;;;;;4936986;28;45361;-63
2022/05/21 10:22:04;;;;;;;0.80;0.80;;;28.90;42.30;;;;;;4931835;28;45485;-61
2022/05/21 10:25:03;;;;;;;1.00;0.90;;;28.90;42.40;;;;;;4956789;28;45954;-61
2022/05/21 10:28:03;;;;;;;0.90;0.90;;;28.90;41.90;;;;;;4934796;28;46681;-61
2022/05/21 10:30:41;;;;;;;0.82;0.82;;;28.90;42.00;;;;;;4950520;28;44709;-63
2022/05/21 10:33:40;;;;;;;1.40;0.70;;;28.90;42.20;;;;;;4938198;28;45633;-61
2022/05/21 10:36:13;;;;;;;0.70;0.70;;;28.90;42.00;;;;;;4938236;28;46263;-61
2022/05/21 10:39:15;;;;;;;1.23;0.85;;;28.90;41.90;;;;;;4950379;28;45475;-64
2022/05/21 10:42:26;;;;;;;0.77;0.70;;;28.90;42.00;;;;;;4941438;28;45473;-62
2022/05/21 10:45:06;;;;;;;0.95;0.55;;;28.90;41.50;;;;;;4944546;28;45142;-61
2022/05/21 10:47:49;;;;;;;0.60;0.60;;;28.90;41.80;;;;;;4936824;28;45907;-61
2022/05/21 10:50:31;;;;;;;1.20;1.08;;;28.90;42.60;;;;;;4936323;28;45599;-62
2022/05/21 10:53:10;;;;;;;0.77;0.77;;;28.90;41.50;;;;;;4917715;28;45051;-61
2022/05/21 10:55:59;;;;;;;1.00;0.70;;;28.90;42.60;;;;;;4932891;28;45445;-61
2022/05/21 10:58:28;;;;;;;0.65;0.65;;;29.00;42.20;;;;;;4950849;28;45307;-64
2022/05/21 11:01:02;;;;;;;2.17;0.90;;;28.90;42.10;;;;;;4952547;28;45090;-61
2022/05/21 11:03:36;;;;;;;0.75;0.75;;;28.90;42.10;;;;;;4952532;28;45719;-61
2022/05/21 11:06:07;;;;;;;1.33;0.77;;;28.90;42.00;;;;;;4952439;28;45464;-58
2022/05/21 11:08:56;;;;;;;0.93;0.80;;;28.90;42.00;;;;;;4935993;28;45984;-59
2022/05/21 11:11:48;;;;;;;0.57;0.57;;;29.00;41.90;;;;;;4942411;28;45151;-62
2022/05/21 11:14:20;;;;;;;0.50;0.50;;;29.00;42.00;;;;;;4940038;28;45060;-61
2022/05/21 11:16:49;;;;;;;0.80;0.80;;;29.00;42.00;;;;;;4952354;28;44875;-62
2022/05/21 11:19:41;;;;;;;0.70;0.70;;;29.00;42.00;;;;;;4937895;28;45993;-55
2022/05/21 11:22:09;;;;;;;0.77;0.70;;;29.00;41.80;;;;;;4938669;28;44789;-65
2022/05/21 11:24:46;;;;;;;0.98;0.70;;;29.10;42.00;;;;;;4955180;28;45349;-59
2022/05/21 11:27:23;;;;;;;0.70;0.70;;;29.10;41.80;;;;;;4937115;28;45323;-60
2022/05/21 11:30:04;;;;;;;2.08;0.90;;;29.10;41.80;;;;;;4940920;28;45410;-59
2022/05/21 11:38:40;;;;;;;0.80;0.70;;;29.00;41.50;;;;;;4934087;28;45348;-62
2022/05/21 11:41:27;;;;;;;0.95;0.80;;;29.00;41.40;;;;;;4920364;28;45929;-59
2022/05/21 11:47:19;;;;;;;0.70;0.63;;;29.00;41.70;;;;;;4958208;28;45422;-61
2022/05/21 11:49:51;;;;;;;0.70;0.68;;;29.10;41.50;;;;;;4949493;28;45445;-65
2022/05/21 11:52:25;;;;;;;4.00;0.95;;;29.10;41.30;;;;;;4963616;28;46352;-58
2022/05/21 11:54:51;;;;;;;1.25;0.70;;;29.10;41.40;;;;;;4958326;28;45267;-62
2022/05/21 11:57:32;;;;;;;0.68;0.68;;;29.10;41.70;;;;;;4956953;28;44756;-58
2022/05/21 11:59:58;;;;;;;0.57;0.57;;;29.10;41.20;;;;;;4964570;28;45502;-59
2022/05/21 12:02:51;;;;;;;0.60;0.60;;;29.10;41.60;;;;;;4943420;28;46979;-65
2022/05/21 12:05:41;;;;;;;0.70;0.60;;;29.10;41.10;;;;;;4927107;28;45338;-61
2022/05/21 12:08:22;;;;;;;2.72;0.80;;;29.10;41.20;;;;;;4942767;28;45110;-62
2022/05/21 12:11:02;;;;;;;1.30;0.95;;;29.10;41.20;;;;;;4954371;28;45433;-61
2022/05/21 12:13:33;;;;;;;0.98;0.80;;;29.10;41.30;;;;;;4940614;28;47002;-65
2022/05/21 12:16:08;;;;;;;0.80;0.80;;;29.10;41.80;;;;;;4954807;28;45266;-58
2022/05/21 12:18:44;;;;;;;0.65;0.60;;;29.10;41.20;;;;;;4953464;28;44734;-59
2022/05/21 12:21:32;;;;;;;3.03;0.60;;;29.10;41.10;;;;;;4939628;28;45172;-65
2022/05/21 12:24:05;;;;;;;1.05;0.75;;;29.10;41.20;;;;;;4958119;28;46143;-60
2022/05/21 12:26:35;;;;;;;0.75;0.70;;;29.10;41.20;;;;;;4956962;28;44931;-61
2022/05/21 12:29:19;;;;;;;0.88;0.80;;;29.10;41.10;;;;;;4959911;28;45301;-61
2022/05/21 12:31:50;;;;;;;0.88;0.70;;;29.10;40.50;;;;;;4933411;28;44655;-61
2022/05/21 12:34:34;;;;;;;0.75;0.60;;;29.10;41.10;;;;;;4956552;28;45919;-60
2022/05/21 12:37:18;;;;;;;3.22;0.88;;;29.10;38.00;;;;;;4956276;28;45325;-62
2022/05/21 12:39:53;;;;;;;1.90;0.50;;;28.90;34.90;;;;;;4943183;28;45171;-58
2022/05/21 12:42:18;;;;;;;1.92;0.65;;;28.50;34.20;;;;;;4949354;28;46325;-58
2022/05/21 12:44:47;;;;;;;1.05;0.47;;;28.40;36.10;;;;;;4956886;28;45330;-59
2022/05/21 12:47:26;;;;;;;2.45;0.45;;;28.30;35.80;;;;;;4947595;28;45395;-60
2022/05/21 12:49:52;;;;;;;3.30;0.30;;;28.30;34.10;;;;;;4950600;28;45447;-60
2022/05/21 12:52:35;;;;;;;1.02;0.30;;;28.30;35.60;;;;;;4932498;28;45220;-61
2022/05/21 12:55:28;;;;;;;3.05;0.38;;;28.30;34.00;;;;;;4946888;28;46241;-58
2022/05/21 12:58:08;;;;;;;1.20;0.40;;;28.30;34.20;;;;;;4953506;28;45600;-59
2022/05/21 13:00:34;;;;;;;5.30;0.60;;;28.30;35.20;;;;;;4935150;28;45313;-60
2022/05/21 13:03:08;;;;;;;3.83;0.60;;;28.30;35.50;;;;;;4953285;28;45636;-61
2022/05/21 13:05:49;;;;;;;1.52;0.40;;;28.40;34.80;;;;;;4946915;28;45520;-62
2022/05/21 13:08:15;;;;;;;2.70;0.60;;;28.40;34.80;;;;;;4928673;28;45250;-61
2022/05/21 13:10:58;;;;;;;0.63;0.32;;;28.40;35.10;;;;;;4950156;28;45340;-61
2022/05/21 13:13:23;;;;;;;0.47;0.30;;;28.40;34.10;;;;;;4916651;28;45557;-60
2022/05/21 13:15:57;;;;;;;5.70;0.60;;;28.30;35.00;;;;;;4931432;28;46183;-62
2022/05/21 13:18:34;;;;;;;3.78;0.50;;;28.30;34.90;;;;;;4950618;28;45069;-60
2022/05/21 13:21:40;;;;;;;4.50;0.65;;;28.30;34.30;;;;;;4951883;28;45299;-61
2022/05/21 13:24:29;;;;;;;0.85;0.43;;;28.30;34.50;;;;;;4908960;28;45282;-60
2022/05/21 13:27:21;;;;;;;1.15;0.22;;;28.30;33.70;;;;;;4936109;28;46022;-60
2022/05/21 13:29:48;;;;;;;1.05;0.50;;;28.20;33.90;;;;;;4954375;28;45364;-58
2022/05/21 13:32:26;;;;;;;1.45;0.50;;;28.20;34.80;;;;;;4956539;28;45293;-60
2022/05/21 13:34:53;;;;;;;3.13;0.60;;;28.30;34.40;;;;;;4954862;28;45193;-57
2022/05/21 13:37:22;;;;;;;3.63;0.50;;;28.30;34.60;;;;;;4952318;28;47026;-59
2022/05/21 13:40:24;;;;;;;1.35;0.50;;;28.20;34.50;;;;;;4934122;28;45468;-56
2022/05/21 13:42:51;;;;;;;1.95;0.50;;;28.30;33.30;;;;;;4914873;28;45435;-60
2022/05/21 13:45:21;;;;;;;1.00;0.40;;;28.20;34.70;;;;;;4920865;28;46213;-59
2022/05/21 13:47:51;;;;;;;0.40;0.32;;;28.20;34.40;;;;;;4917030;28;45991;-59
2022/05/21 13:50:19;;;;;;;0.93;0.40;;;28.20;34.30;;;;;;4960920;28;45265;-60
2022/05/21 13:52:44;;;;;;;1.17;0.50;;;28.20;34.50;;;;;;4923465;28;45357;-59
2022/05/21 13:55:11;;;;;;;1.55;0.55;;;28.20;35.10;;;;;;4936686;28;45176;-59
2022/05/21 13:57:37;;;;;;;1.98;0.47;;;28.20;34.40;;;;;;4937678;28;46033;-56
2022/05/21 14:00:07;;;;;;;1.55;0.43;;;28.20;34.30;;;;;;4957127;28;45280;-60
2022/05/21 14:02:43;;;;;;;1.55;0.40;;;28.20;34.10;;;;;;4958865;28;44813;-59
2022/05/21 14:05:29;;;;;;;1.30;0.45;;;28.10;33.70;;;;;;4934966;28;46324;-56
2022/05/21 14:08:12;;;;;;;3.17;0.40;;;28.10;33.50;;;;;;4955093;28;46160;-59
2022/05/21 14:10:49;;;;;;;0.82;0.40;;;28.10;34.20;;;;;;4938422;28;45387;-60
2022/05/21 14:13:28;;;;;;;0.82;0.30;;;28.10;34.10;;;;;;4933271;28;45597;-60
2022/05/21 14:15:54;;;;;;;0.88;0.40;;;28.10;33.70;;;;;;4924273;28;45851;-59
2022/05/21 14:18:32;;;;;;;2.95;0.60;;;28.10;34.60;;;;;;4917564;28;46037;-59
2022/05/21 14:21:18;;;;;;;0.95;0.40;;;28.10;33.90;;;;;;4953193;28;45406;-59
2022/05/21 14:23:44;;;;;;;1.77;0.32;;;28.00;34.10;;;;;;4955003;28;45310;-60
2022/05/21 14:26:31;;;;;;;1.33;0.50;;;28.10;34.40;;;;;;4955244;28;44696;-58
2022/05/21 14:28:57;;;;;;;4.55;0.57;;;28.10;33.30;;;;;;4951456;28;46144;-58
2022/05/21 14:31:27;;;;;;;0.90;0.50;;;28.10;34.10;;;;;;4954258;28;45666;-60
2022/05/21 14:33:58;;;;;;;0.88;0.40;;;28.10;33.70;;;;;;4953008;28;45612;-61
2022/05/21 14:36:33;;;;;;;2.25;0.63;;;28.10;33.80;;;;;;4949419;28;46340;-60
2022/05/21 14:38:58;;;;;;;1.92;0.73;;;28.10;34.00;;;;;;4928472;28;47217;-60
2022/05/21 14:41:37;;;;;;;0.70;0.40;;;28.00;34.30;;;;;;4937974;28;45280;-58
2022/05/21 14:44:13;;;;;;;1.25;0.50;;;28.10;34.00;;;;;;4952569;28;45709;-61
2022/05/21 14:49:23;;;;;;;1.38;0.32;;;28.00;34.10;;;;;;4955156;28;45975;-61
2022/05/21 14:54:37;;;;;;;0.73;0.40;;;28.10;33.70;;;;;;4951573;28;45493;-62
2022/05/21 14:57:03;;;;;;;1.67;0.40;;;28.10;33.70;;;;;;4936724;28;45317;-58
2022/05/21 14:59:29;;;;;;;3.58;0.63;;;28.10;33.80;;;;;;4958634;28;46261;-60
2022/05/21 15:01:55;;;;;;;2.20;0.57;;;28.00;34.30;;;;;;4961177;28;45329;-59
2022/05/21 15:04:21;;;;;;;1.80;0.40;;;28.00;33.70;;;;;;4949822;28;45674;-56
2022/05/21 15:06:46;;;;;;;2.30;0.50;;;28.00;33.60;;;;;;4948910;28;44678;-59
2022/05/21 15:09:12;;;;;;;2.17;0.50;;;28.00;33.70;;;;;;4950564;28;45896;-59
2022/05/21 15:11:38;;;;;;;0.93;0.40;;;27.90;33.70;;;;;;4952525;28;45226;-59
2022/05/21 15:14:03;;;;;;;2.20;0.52;;;28.00;33.80;;;;;;4950685;28;45876;-62
2022/05/21 15:16:29;;;;;;;2.45;0.40;;;28.00;33.90;;;;;;4953081;28;45533;-57
2022/05/21 15:18:55;;;;;;;4.53;0.55;;;28.00;33.80;;;;;;4945968;28;46280;-61
2022/05/21 15:21:27;;;;;;;1.77;0.50;;;28.00;33.70;;;;;;4932564;28;45629;-59
2022/05/21 15:23:55;;;;;;;1.67;0.30;;;28.00;33.40;;;;;;4943337;28;45020;-60
2022/05/21 15:26:24;;;;;;;1.63;0.57;;;28.00;33.50;;;;;;4953170;28;45454;-60
2022/05/21 15:28:50;;;;;;;0.75;0.40;;;28.00;33.60;;;;;;4933643;28;45417;-59
2022/05/21 15:31:16;;;;;;;1.75;0.45;;;28.00;33.50;;;;;;4935193;28;44818;-63
2022/05/21 15:33:42;;;;;;;1.48;0.30;;;28.00;33.40;;;;;;4938369;28;44826;-57
2022/05/21 15:36:07;;;;;;;1.60;0.47;;;27.90;33.40;;;;;;4949864;28;45331;-60
2022/05/21 15:38:33;;;;;;;2.05;0.43;;;28.00;33.40;;;;;;4932771;28;46221;-59
2022/05/21 15:40:58;;;;;;;1.85;0.65;;;28.00;33.20;;;;;;4954666;28;45598;-60
2022/05/21 15:43:24;;;;;;;0.95;0.55;;;27.90;33.30;;;;;;4948825;28;45581;-60
2022/05/21 15:45:50;;;;;;;3.03;0.68;;;28.00;33.10;;;;;;4949032;28;44896;-60
2022/05/21 15:48:16;;;;;;;2.88;0.93;;;28.00;33.10;;;;;;4947277;28;45664;-61
2022/05/21 15:50:41;;;;;;;1.40;0.55;;;28.00;33.00;;;;;;4943462;28;45569;-60
2022/05/21 15:53:09;;;;;;;1.50;0.65;;;27.90;32.90;;;;;;4953199;28;45305;-60
2022/05/21 15:55:36;;;;;;;3.05;0.52;;;27.90;32.90;;;;;;4949293;28;45707;-59
2022/05/21 15:58:02;;;;;;;1.58;0.75;;;27.90;33.00;;;;;;4953355;28;46093;-60
2022/05/21 16:00:28;;;;;;;2.50;0.90;;;27.90;33.00;;;;;;4934735;28;45325;-59
2022/05/21 16:02:55;;;;;;;3.50;0.90;;;27.90;32.90;;;;;;4953253;28;45955;-58
2022/05/21 16:05:20;;;;;;;3.35;1.02;;;27.80;32.90;;;;;;4949509;28;45573;-61
2022/05/21 16:07:46;;;;;;;2.47;0.82;;;27.80;32.80;;;;;;4949263;28;45151;-61
2022/05/21 16:10:12;;;;;;;1.27;0.50;;;27.90;32.70;;;;;;4953091;28;45709;-60
2022/05/21 16:12:38;;;;;;;1.02;0.40;;;27.80;32.70;;;;;;4936174;28;45531;-59
2022/05/21 16:15:08;;;;;;;4.35;0.50;;;27.80;32.80;;;;;;4952555;28;45543;-59
2022/05/21 16:17:34;;;;;;;1.55;0.55;;;27.80;32.70;;;;;;4935410;28;45406;-61
2022/05/21 16:19:59;;;;;;;1.90;0.63;;;27.90;32.70;;;;;;4953267;28;45573;-59
2022/05/21 16:22:27;;;;;;;1.15;0.47;;;27.80;32.70;;;;;;4952338;28;45152;-59
2022/05/21 16:24:52;;;;;;;2.03;0.70;;;27.80;32.60;;;;;;4951792;28;45160;-59
2022/05/21 16:27:22;;;;;;;1.58;0.50;;;27.80;32.70;;;;;;4945887;28;46053;-61
2022/05/21 16:29:50;;;;;;;3.30;0.57;;;27.80;32.60;;;;;;4952250;28;45544;-59
2022/05/21 16:32:19;;;;;;;1.35;0.50;;;27.80;32.80;;;;;;4953350;28;44845;-59
2022/05/21 16:34:46;;;;;;;1.35;0.43;;;27.80;32.80;;;;;;4951254;28;45237;-59
2022/05/21 16:37:12;;;;;;;1.40;0.60;;;27.80;32.70;;;;;;4931674;28;45916;-60
2022/05/21 16:39:37;;;;;;;0.68;0.40;;;27.80;32.90;;;;;;4950589;28;44721;-59
2022/05/21 16:42:04;;;;;;;1.40;0.60;;;27.80;32.70;;;;;;4925441;28;44971;-62